sensor_id;sensor_type;location;lat;lon;timestamp;temperature;humidity
66608;DHT22;53462;39.616;8.824;2023-05-07T00:00:46;17.20;62.20
66608;DHT22;53462;39.616;8.824;2023-05-07T00:03:12;17.10;62.60
66608;DHT22;53462;39.616;8.824;2023-05-07T00:05:39;17.00;62.00
66608;DHT22;53462;39.616;8.824;2023-05-07T00:08:05;17.00;62.30
66608;DHT22;53462;39.616;8.824;2023-05-07T00:10:31;17.00;61.90
66608;DHT22;53462;39.616;8.824;2023-05-07T00:12:57;17.00;61.90
66608;DHT22;53462;39.616;8.824;2023-05-07T00:15:23;17.00;62.10
66608;DHT22;53462;39.616;8.824;2023-05-07T00:17:49;17.00;62.10
66608;DHT22;53462;39.616;8.824;2023-05-07T00:20:15;16.90;62.30
66608;DHT22;53462;39.616;8.824;2023-05-07T00:22:41;16.80;62.00
66608;DHT22;53462;39.616;8.824;2023-05-07T00:25:07;16.80;61.90
66608;DHT22;53462;39.616;8.824;2023-05-07T00:27:33;16.70;62.40
66608;DHT22;53462;39.616;8.824;2023-05-07T00:29:59;16.70;62.50
66608;DHT22;53462;39.616;8.824;2023-05-07T00:32:25;16.60;62.90
66608;DHT22;53462;39.616;8.824;2023-05-07T00:34:51;16.70;61.90
66608;DHT22;53462;39.616;8.824;2023-05-07T00:37:17;16.70;61.20
66608;DHT22;53462;39.616;8.824;2023-05-07T00:39:43;16.70;60.90
66608;DHT22;53462;39.616;8.824;2023-05-07T00:42:08;16.60;63.00
66608;DHT22;53462;39.616;8.824;2023-05-07T00:44:34;16.40;63.80
66608;DHT22;53462;39.616;8.824;2023-05-07T00:47:02;16.50;62.30
66608;DHT22;53462;39.616;8.824;2023-05-07T00:49:39;16.50;62.40
66608;DHT22;53462;39.616;8.824;2023-05-07T00:52:07;16.50;61.90
66608;DHT22;53462;39.616;8.824;2023-05-07T00:54:35;16.50;61.90
66608;DHT22;53462;39.616;8.824;2023-05-07T00:57:02;16.50;61.20
66608;DHT22;53462;39.616;8.824;2023-05-07T00:59:30;16.40;61.90
66608;DHT22;53462;39.616;8.824;2023-05-07T01:01:56;16.40;62.10
66608;DHT22;53462;39.616;8.824;2023-05-07T01:04:22;16.10;63.30
66608;DHT22;53462;39.616;8.824;2023-05-07T01:06:48;15.90;64.30
66608;DHT22;53462;39.616;8.824;2023-05-07T01:09:14;15.90;64.30
66608;DHT22;53462;39.616;8.824;2023-05-07T01:11:41;15.80;64.50
66608;DHT22;53462;39.616;8.824;2023-05-07T01:14:09;15.70;65.50
66608;DHT22;53462;39.616;8.824;2023-05-07T01:16:36;15.60;66.10
66608;DHT22;53462;39.616;8.824;2023-05-07T01:19:03;15.60;66.40
66608;DHT22;53462;39.616;8.824;2023-05-07T01:21:33;15.60;66.40
66608;DHT22;53462;39.616;8.824;2023-05-07T01:24:00;15.60;66.60
66608;DHT22;53462;39.616;8.824;2023-05-07T01:26:28;15.50;66.90
66608;DHT22;53462;39.616;8.824;2023-05-07T01:28:54;15.60;66.30
66608;DHT22;53462;39.616;8.824;2023-05-07T01:31:20;15.50;66.50
66608;DHT22;53462;39.616;8.824;2023-05-07T01:33:48;15.70;66.00
66608;DHT22;53462;39.616;8.824;2023-05-07T01:36:17;15.70;65.90
66608;DHT22;53462;39.616;8.824;2023-05-07T01:38:44;15.60;65.60
66608;DHT22;53462;39.616;8.824;2023-05-07T01:41:12;15.50;66.20
66608;DHT22;53462;39.616;8.824;2023-05-07T01:43:40;15.40;67.00
66608;DHT22;53462;39.616;8.824;2023-05-07T01:46:08;15.40;67.60
66608;DHT22;53462;39.616;8.824;2023-05-07T01:48:36;15.40;67.20
66608;DHT22;53462;39.616;8.824;2023-05-07T01:51:02;15.50;66.80
66608;DHT22;53462;39.616;8.824;2023-05-07T01:53:28;15.50;66.70
66608;DHT22;53462;39.616;8.824;2023-05-07T01:55:54;15.50;66.80
66608;DHT22;53462;39.616;8.824;2023-05-07T01:58:21;15.40;67.30
66608;DHT22;53462;39.616;8.824;2023-05-07T02:00:47;15.40;67.00
66608;DHT22;53462;39.616;8.824;2023-05-07T02:03:13;15.40;66.40
66608;DHT22;53462;39.616;8.824;2023-05-07T02:05:47;15.50;65.80
66608;DHT22;53462;39.616;8.824;2023-05-07T02:08:27;15.60;65.40
66608;DHT22;53462;39.616;8.824;2023-05-07T02:10:53;15.60;64.80
66608;DHT22;53462;39.616;8.824;2023-05-07T02:13:20;15.60;65.00
66608;DHT22;53462;39.616;8.824;2023-05-07T02:15:47;15.70;63.50
66608;DHT22;53462;39.616;8.824;2023-05-07T02:18:16;15.80;63.30
66608;DHT22;53462;39.616;8.824;2023-05-07T02:20:43;15.90;62.40
66608;DHT22;53462;39.616;8.824;2023-05-07T02:23:09;16.00;62.00
66608;DHT22;53462;39.616;8.824;2023-05-07T02:25:35;16.00;61.60
66608;DHT22;53462;39.616;8.824;2023-05-07T02:28:01;16.00;61.50
66608;DHT22;53462;39.616;8.824;2023-05-07T02:30:38;16.00;61.10
66608;DHT22;53462;39.616;8.824;2023-05-07T02:33:05;16.10;60.70
66608;DHT22;53462;39.616;8.824;2023-05-07T02:35:32;16.10;60.30
66608;DHT22;53462;39.616;8.824;2023-05-07T02:37:58;16.10;59.80
66608;DHT22;53462;39.616;8.824;2023-05-07T02:40:25;16.10;60.00
66608;DHT22;53462;39.616;8.824;2023-05-07T02:42:51;16.10;59.90
66608;DHT22;53462;39.616;8.824;2023-05-07T02:45:17;16.10;60.00
66608;DHT22;53462;39.616;8.824;2023-05-07T02:47:44;16.10;60.20
66608;DHT22;53462;39.616;8.824;2023-05-07T02:50:10;16.10;59.80
66608;DHT22;53462;39.616;8.824;2023-05-07T02:52:36;16.10;59.40
66608;DHT22;53462;39.616;8.824;2023-05-07T02:55:03;16.10;59.80
66608;DHT22;53462;39.616;8.824;2023-05-07T02:57:29;16.10;60.40
66608;DHT22;53462;39.616;8.824;2023-05-07T02:59:55;16.00;60.30
66608;DHT22;53462;39.616;8.824;2023-05-07T03:02:21;16.00;60.60
66608;DHT22;53462;39.616;8.824;2023-05-07T03:04:47;15.80;62.00
66608;DHT22;53462;39.616;8.824;2023-05-07T03:07:13;15.60;62.70
66608;DHT22;53462;39.616;8.824;2023-05-07T03:09:40;15.50;63.60
66608;DHT22;53462;39.616;8.824;2023-05-07T03:12:06;15.50;63.20
66608;DHT22;53462;39.616;8.824;2023-05-07T03:14:32;15.50;63.10
66608;DHT22;53462;39.616;8.824;2023-05-07T03:16:58;15.60;62.50
66608;DHT22;53462;39.616;8.824;2023-05-07T03:19:24;15.60;62.60
66608;DHT22;53462;39.616;8.824;2023-05-07T03:21:50;15.60;62.60
66608;DHT22;53462;39.616;8.824;2023-05-07T03:24:16;15.60;62.40
66608;DHT22;53462;39.616;8.824;2023-05-07T03:26:42;15.50;62.30
66608;DHT22;53462;39.616;8.824;2023-05-07T03:29:08;15.40;63.00
66608;DHT22;53462;39.616;8.824;2023-05-07T03:31:34;15.40;62.70
66608;DHT22;53462;39.616;8.824;2023-05-07T03:34:01;15.40;62.70
66608;DHT22;53462;39.616;8.824;2023-05-07T03:36:27;15.40;62.90
66608;DHT22;53462;39.616;8.824;2023-05-07T03:38:54;15.30;63.20
66608;DHT22;53462;39.616;8.824;2023-05-07T03:41:23;15.30;63.40
66608;DHT22;53462;39.616;8.824;2023-05-07T03:43:49;15.30;63.50
66608;DHT22;53462;39.616;8.824;2023-05-07T03:46:15;15.20;64.10
66608;DHT22;53462;39.616;8.824;2023-05-07T03:48:42;15.00;65.10
66608;DHT22;53462;39.616;8.824;2023-05-07T03:51:08;14.90;65.60
66608;DHT22;53462;39.616;8.824;2023-05-07T03:53:34;14.90;66.10
66608;DHT22;53462;39.616;8.824;2023-05-07T03:56:00;14.80;66.70
66608;DHT22;53462;39.616;8.824;2023-05-07T03:58:29;14.70;67.20
66608;DHT22;53462;39.616;8.824;2023-05-07T04:00:58;14.70;67.60
66608;DHT22;53462;39.616;8.824;2023-05-07T04:03:27;14.60;68.20
66608;DHT22;53462;39.616;8.824;2023-05-07T04:05:55;14.60;68.40
66608;DHT22;53462;39.616;8.824;2023-05-07T04:08:21;14.70;68.50
66608;DHT22;53462;39.616;8.824;2023-05-07T04:10:56;14.90;67.80
66608;DHT22;53462;39.616;8.824;2023-05-07T04:13:23;15.50;65.20
66608;DHT22;53462;39.616;8.824;2023-05-07T04:15:49;15.70;64.30
66608;DHT22;53462;39.616;8.824;2023-05-07T04:18:17;15.80;63.80
66608;DHT22;53462;39.616;8.824;2023-05-07T04:20:45;16.00;62.70
66608;DHT22;53462;39.616;8.824;2023-05-07T04:23:13;16.20;61.30
66608;DHT22;53462;39.616;8.824;2023-05-07T04:25:40;16.30;60.80
66608;DHT22;53462;39.616;8.824;2023-05-07T04:28:26;16.40;60.50
66608;DHT22;53462;39.616;8.824;2023-05-07T04:30:53;16.40;60.40
66608;DHT22;53462;39.616;8.824;2023-05-07T04:33:20;16.40;60.50
66608;DHT22;53462;39.616;8.824;2023-05-07T04:35:47;16.40;60.30
66608;DHT22;53462;39.616;8.824;2023-05-07T04:38:14;16.40;60.00
66608;DHT22;53462;39.616;8.824;2023-05-07T04:40:41;16.50;59.90
66608;DHT22;53462;39.616;8.824;2023-05-07T04:43:09;16.50;60.10
66608;DHT22;53462;39.616;8.824;2023-05-07T04:45:41;16.50;59.80
66608;DHT22;53462;39.616;8.824;2023-05-07T04:48:09;16.50;59.80
66608;DHT22;53462;39.616;8.824;2023-05-07T04:50:38;16.50;59.60
66608;DHT22;53462;39.616;8.824;2023-05-07T04:53:05;16.60;59.50
66608;DHT22;53462;39.616;8.824;2023-05-07T04:55:31;16.60;59.40
66608;DHT22;53462;39.616;8.824;2023-05-07T04:57:57;16.60;59.10
66608;DHT22;53462;39.616;8.824;2023-05-07T05:00:23;16.70;59.10
66608;DHT22;53462;39.616;8.824;2023-05-07T05:02:51;16.70;59.20
66608;DHT22;53462;39.616;8.824;2023-05-07T05:05:19;16.80;58.70
66608;DHT22;53462;39.616;8.824;2023-05-07T05:07:47;16.80;58.80
66608;DHT22;53462;39.616;8.824;2023-05-07T05:10:13;16.80;58.80
66608;DHT22;53462;39.616;8.824;2023-05-07T05:12:40;16.90;58.90
66608;DHT22;53462;39.616;8.824;2023-05-07T05:15:07;17.00;58.70
66608;DHT22;53462;39.616;8.824;2023-05-07T05:17:33;17.00;58.50
66608;DHT22;53462;39.616;8.824;2023-05-07T05:20:02;17.10;57.80
66608;DHT22;53462;39.616;8.824;2023-05-07T05:22:30;17.20;56.90
66608;DHT22;53462;39.616;8.824;2023-05-07T05:24:58;17.30;57.10
66608;DHT22;53462;39.616;8.824;2023-05-07T05:27:24;17.30;56.70
66608;DHT22;53462;39.616;8.824;2023-05-07T05:29:50;17.40;56.80
66608;DHT22;53462;39.616;8.824;2023-05-07T05:32:16;17.40;56.60
66608;DHT22;53462;39.616;8.824;2023-05-07T05:34:42;17.50;56.30
66608;DHT22;53462;39.616;8.824;2023-05-07T05:37:08;17.60;56.40
66608;DHT22;53462;39.616;8.824;2023-05-07T05:39:36;17.70;55.80
66608;DHT22;53462;39.616;8.824;2023-05-07T05:42:02;17.70;56.20
66608;DHT22;53462;39.616;8.824;2023-05-07T05:44:28;17.80;55.80
66608;DHT22;53462;39.616;8.824;2023-05-07T05:46:54;17.90;55.40
66608;DHT22;53462;39.616;8.824;2023-05-07T05:49:21;18.00;55.50
66608;DHT22;53462;39.616;8.824;2023-05-07T05:51:48;18.10;55.00
66608;DHT22;53462;39.616;8.824;2023-05-07T05:54:14;18.20;55.10
66608;DHT22;53462;39.616;8.824;2023-05-07T05:56:41;18.40;54.60
66608;DHT22;53462;39.616;8.824;2023-05-07T05:59:08;18.60;54.00
66608;DHT22;53462;39.616;8.824;2023-05-07T06:01:34;18.70;52.90
66608;DHT22;53462;39.616;8.824;2023-05-07T06:04:02;19.10;52.60
66608;DHT22;53462;39.616;8.824;2023-05-07T06:06:28;19.20;51.90
66608;DHT22;53462;39.616;8.824;2023-05-07T06:08:54;19.20;52.40
66608;DHT22;53462;39.616;8.824;2023-05-07T06:11:26;19.40;52.30
66608;DHT22;53462;39.616;8.824;2023-05-07T06:13:52;19.40;52.20
66608;DHT22;53462;39.616;8.824;2023-05-07T06:16:18;20.00;49.90
66608;DHT22;53462;39.616;8.824;2023-05-07T06:18:45;20.40;49.70
66608;DHT22;53462;39.616;8.824;2023-05-07T06:21:13;20.50;49.70
66608;DHT22;53462;39.616;8.824;2023-05-07T06:23:40;20.50;49.30
66608;DHT22;53462;39.616;8.824;2023-05-07T06:26:07;20.70;49.30
66608;DHT22;53462;39.616;8.824;2023-05-07T06:28:38;20.80;48.80
66608;DHT22;53462;39.616;8.824;2023-05-07T06:31:18;21.00;48.40
66608;DHT22;53462;39.616;8.824;2023-05-07T06:33:58;21.30;47.60
66608;DHT22;53462;39.616;8.824;2023-05-07T06:36:30;21.40;47.60
66608;DHT22;53462;39.616;8.824;2023-05-07T06:39:00;21.70;47.30
66608;DHT22;53462;39.616;8.824;2023-05-07T06:41:25;21.80;46.40
66608;DHT22;53462;39.616;8.824;2023-05-07T06:43:52;22.00;46.60
66608;DHT22;53462;39.616;8.824;2023-05-07T06:46:36;22.10;45.90
66608;DHT22;53462;39.616;8.824;2023-05-07T06:49:03;22.30;45.20
66608;DHT22;53462;39.616;8.824;2023-05-07T06:51:30;22.40;44.60
66608;DHT22;53462;39.616;8.824;2023-05-07T06:54:00;22.50;43.90
66608;DHT22;53462;39.616;8.824;2023-05-07T06:56:26;22.40;43.90
66608;DHT22;53462;39.616;8.824;2023-05-07T06:58:53;22.60;43.60
66608;DHT22;53462;39.616;8.824;2023-05-07T07:01:20;22.50;44.30
66608;DHT22;53462;39.616;8.824;2023-05-07T07:03:46;22.20;44.60
66608;DHT22;53462;39.616;8.824;2023-05-07T07:06:12;21.90;44.80
66608;DHT22;53462;39.616;8.824;2023-05-07T07:08:38;21.60;45.40
66608;DHT22;53462;39.616;8.824;2023-05-07T07:11:06;21.90;45.90
66608;DHT22;53462;39.616;8.824;2023-05-07T07:13:32;21.90;45.00
66608;DHT22;53462;39.616;8.824;2023-05-07T07:15:58;21.80;44.80
66608;DHT22;53462;39.616;8.824;2023-05-07T07:18:25;22.00;44.20
66608;DHT22;53462;39.616;8.824;2023-05-07T07:20:52;22.20;44.40
66608;DHT22;53462;39.616;8.824;2023-05-07T07:23:18;22.50;43.80
66608;DHT22;53462;39.616;8.824;2023-05-07T07:25:44;22.70;43.00
66608;DHT22;53462;39.616;8.824;2023-05-07T07:28:10;22.70;43.50
66608;DHT22;53462;39.616;8.824;2023-05-07T07:30:38;22.60;43.30
66608;DHT22;53462;39.616;8.824;2023-05-07T07:33:04;22.80;43.40
66608;DHT22;53462;39.616;8.824;2023-05-07T07:35:34;22.70;42.80
66608;DHT22;53462;39.616;8.824;2023-05-07T07:38:00;23.00;42.30
66608;DHT22;53462;39.616;8.824;2023-05-07T07:40:27;23.10;41.70
66608;DHT22;53462;39.616;8.824;2023-05-07T07:42:53;23.10;41.80
66608;DHT22;53462;39.616;8.824;2023-05-07T07:45:20;23.30;41.60
66608;DHT22;53462;39.616;8.824;2023-05-07T07:47:48;23.20;41.10
66608;DHT22;53462;39.616;8.824;2023-05-07T07:50:14;23.20;41.40
66608;DHT22;53462;39.616;8.824;2023-05-07T07:52:40;23.30;41.40
66608;DHT22;53462;39.616;8.824;2023-05-07T07:55:07;23.20;41.20
66608;DHT22;53462;39.616;8.824;2023-05-07T07:57:34;23.40;41.00
66608;DHT22;53462;39.616;8.824;2023-05-07T08:00:00;23.30;41.80
66608;DHT22;53462;39.616;8.824;2023-05-07T08:02:28;23.70;42.00
66608;DHT22;53462;39.616;8.824;2023-05-07T08:04:54;23.90;41.10
66608;DHT22;53462;39.616;8.824;2023-05-07T08:07:20;23.80;40.90
66608;DHT22;53462;39.616;8.824;2023-05-07T08:09:48;24.30;41.10
66608;DHT22;53462;39.616;8.824;2023-05-07T08:12:17;24.00;41.50
66608;DHT22;53462;39.616;8.824;2023-05-07T08:14:43;24.00;41.50
66608;DHT22;53462;39.616;8.824;2023-05-07T08:17:09;24.10;41.10
66608;DHT22;53462;39.616;8.824;2023-05-07T08:19:36;24.00;40.20
66608;DHT22;53462;39.616;8.824;2023-05-07T08:22:04;24.30;40.20
66608;DHT22;53462;39.616;8.824;2023-05-07T08:24:32;24.40;41.10
66608;DHT22;53462;39.616;8.824;2023-05-07T08:26:59;24.60;39.10
66608;DHT22;53462;39.616;8.824;2023-05-07T08:29:25;24.60;39.20
66608;DHT22;53462;39.616;8.824;2023-05-07T08:31:51;24.80;38.40
66608;DHT22;53462;39.616;8.824;2023-05-07T08:34:17;24.70;38.30
66608;DHT22;53462;39.616;8.824;2023-05-07T08:36:46;24.90;37.80
66608;DHT22;53462;39.616;8.824;2023-05-07T08:39:15;24.90;37.70
66608;DHT22;53462;39.616;8.824;2023-05-07T08:41:48;24.80;37.90
66608;DHT22;53462;39.616;8.824;2023-05-07T08:44:22;24.90;38.20
66608;DHT22;53462;39.616;8.824;2023-05-07T08:46:51;25.20;37.80
66608;DHT22;53462;39.616;8.824;2023-05-07T08:49:20;25.30;37.70
66608;DHT22;53462;39.616;8.824;2023-05-07T08:51:46;25.30;37.40
66608;DHT22;53462;39.616;8.824;2023-05-07T08:54:16;25.80;37.20
66608;DHT22;53462;39.616;8.824;2023-05-07T08:56:42;25.80;37.60
66608;DHT22;53462;39.616;8.824;2023-05-07T08:59:08;25.90;36.90
66608;DHT22;53462;39.616;8.824;2023-05-07T09:01:34;25.90;36.90
66608;DHT22;53462;39.616;8.824;2023-05-07T09:04:02;26.20;36.90
66608;DHT22;53462;39.616;8.824;2023-05-07T09:06:29;26.10;36.00
66608;DHT22;53462;39.616;8.824;2023-05-07T09:08:56;26.00;35.40
66608;DHT22;53462;39.616;8.824;2023-05-07T09:11:27;26.30;35.10
66608;DHT22;53462;39.616;8.824;2023-05-07T09:13:57;26.30;35.00
66608;DHT22;53462;39.616;8.824;2023-05-07T09:16:26;26.50;34.50
66608;DHT22;53462;39.616;8.824;2023-05-07T09:18:53;26.10;34.80
66608;DHT22;53462;39.616;8.824;2023-05-07T09:21:21;26.30;34.40
66608;DHT22;53462;39.616;8.824;2023-05-07T09:23:51;26.20;34.80
66608;DHT22;53462;39.616;8.824;2023-05-07T09:26:21;26.80;34.70
66608;DHT22;53462;39.616;8.824;2023-05-07T09:28:48;27.20;33.10
66608;DHT22;53462;39.616;8.824;2023-05-07T09:31:14;26.70;33.30
66608;DHT22;53462;39.616;8.824;2023-05-07T09:33:41;26.80;33.70
66608;DHT22;53462;39.616;8.824;2023-05-07T09:36:10;26.70;34.70
66608;DHT22;53462;39.616;8.824;2023-05-07T09:38:38;26.70;34.50
66608;DHT22;53462;39.616;8.824;2023-05-07T09:41:09;26.60;34.10
66608;DHT22;53462;39.616;8.824;2023-05-07T09:43:56;26.70;34.20
66608;DHT22;53462;39.616;8.824;2023-05-07T09:46:30;26.80;34.10
66608;DHT22;53462;39.616;8.824;2023-05-07T09:49:01;26.90;34.80
66608;DHT22;53462;39.616;8.824;2023-05-07T09:54:00;27.50;33.90
66608;DHT22;53462;39.616;8.824;2023-05-07T09:56:30;27.30;34.40
66608;DHT22;53462;39.616;8.824;2023-05-07T09:59:00;27.50;33.60
66608;DHT22;53462;39.616;8.824;2023-05-07T10:01:31;27.20;34.20
66608;DHT22;53462;39.616;8.824;2023-05-07T10:03:57;27.20;34.90
66608;DHT22;53462;39.616;8.824;2023-05-07T10:06:25;27.60;34.20
66608;DHT22;53462;39.616;8.824;2023-05-07T10:08:53;27.90;33.80
66608;DHT22;53462;39.616;8.824;2023-05-07T10:11:19;28.10;33.40
66608;DHT22;53462;39.616;8.824;2023-05-07T10:13:48;27.80;33.80
66608;DHT22;53462;39.616;8.824;2023-05-07T10:16:14;28.10;33.40
66608;DHT22;53462;39.616;8.824;2023-05-07T10:18:46;28.10;33.00
66608;DHT22;53462;39.616;8.824;2023-05-07T10:21:19;28.50;32.70
66608;DHT22;53462;39.616;8.824;2023-05-07T10:23:57;28.50;33.00
66608;DHT22;53462;39.616;8.824;2023-05-07T10:26:25;28.70;32.90
66608;DHT22;53462;39.616;8.824;2023-05-07T10:28:56;28.80;31.00
66608;DHT22;53462;39.616;8.824;2023-05-07T10:31:37;28.10;31.80
66608;DHT22;53462;39.616;8.824;2023-05-07T10:34:12;27.90;32.70
66608;DHT22;53462;39.616;8.824;2023-05-07T10:36:40;28.10;33.40
66608;DHT22;53462;39.616;8.824;2023-05-07T10:39:07;28.10;33.30
66608;DHT22;53462;39.616;8.824;2023-05-07T10:41:34;28.10;32.40
66608;DHT22;53462;39.616;8.824;2023-05-07T10:44:01;28.10;32.00
66608;DHT22;53462;39.616;8.824;2023-05-07T10:46:30;28.80;32.40
66608;DHT22;53462;39.616;8.824;2023-05-07T10:49:07;28.70;32.40
66608;DHT22;53462;39.616;8.824;2023-05-07T10:52:24;28.80;32.40
66608;DHT22;53462;39.616;8.824;2023-05-07T10:57:47;28.50;30.50
66608;DHT22;53462;39.616;8.824;2023-05-07T11:05:33;28.70;30.40
66608;DHT22;53462;39.616;8.824;2023-05-07T11:08:12;28.70;29.90
66608;DHT22;53462;39.616;8.824;2023-05-07T11:10:59;28.70;30.00
66608;DHT22;53462;39.616;8.824;2023-05-07T11:13:48;28.60;30.00
66608;DHT22;53462;39.616;8.824;2023-05-07T11:16:38;28.70;29.90
66608;DHT22;53462;39.616;8.824;2023-05-07T11:19:14;28.80;29.90
66608;DHT22;53462;39.616;8.824;2023-05-07T11:21:46;29.10;29.70
66608;DHT22;53462;39.616;8.824;2023-05-07T11:24:40;28.90;30.60
66608;DHT22;53462;39.616;8.824;2023-05-07T11:27:09;29.00;31.20
66608;DHT22;53462;39.616;8.824;2023-05-07T11:29:35;29.00;31.10
66608;DHT22;53462;39.616;8.824;2023-05-07T11:32:06;29.70;30.90
66608;DHT22;53462;39.616;8.824;2023-05-07T11:34:42;29.70;30.70
66608;DHT22;53462;39.616;8.824;2023-05-07T11:37:09;29.50;31.20
66608;DHT22;53462;39.616;8.824;2023-05-07T11:39:41;29.40;31.20
66608;DHT22;53462;39.616;8.824;2023-05-07T11:42:28;29.60;31.60
66608;DHT22;53462;39.616;8.824;2023-05-07T11:44:54;29.40;31.20
66608;DHT22;53462;39.616;8.824;2023-05-07T11:47:20;29.30;30.90
66608;DHT22;53462;39.616;8.824;2023-05-07T11:49:48;29.50;30.90
66608;DHT22;53462;39.616;8.824;2023-05-07T11:52:18;29.00;31.20
66608;DHT22;53462;39.616;8.824;2023-05-07T11:54:52;29.40;31.70
66608;DHT22;53462;39.616;8.824;2023-05-07T11:57:18;29.50;30.90
66608;DHT22;53462;39.616;8.824;2023-05-07T11:59:44;29.30;30.70
66608;DHT22;53462;39.616;8.824;2023-05-07T12:02:10;29.50;31.00
66608;DHT22;53462;39.616;8.824;2023-05-07T12:04:39;29.50;31.50
66608;DHT22;53462;39.616;8.824;2023-05-07T12:07:05;29.20;30.60
66608;DHT22;53462;39.616;8.824;2023-05-07T12:09:32;29.70;31.00
66608;DHT22;53462;39.616;8.824;2023-05-07T12:12:03;29.90;30.90
66608;DHT22;53462;39.616;8.824;2023-05-07T12:14:30;29.90;30.80
66608;DHT22;53462;39.616;8.824;2023-05-07T12:16:56;30.00;30.40
66608;DHT22;53462;39.616;8.824;2023-05-07T12:19:22;29.90;30.20
66608;DHT22;53462;39.616;8.824;2023-05-07T12:21:49;29.90;30.50
66608;DHT22;53462;39.616;8.824;2023-05-07T12:24:15;29.90;30.40
66608;DHT22;53462;39.616;8.824;2023-05-07T12:26:41;29.90;30.10
66608;DHT22;53462;39.616;8.824;2023-05-07T12:29:07;29.90;32.20
66608;DHT22;53462;39.616;8.824;2023-05-07T12:31:33;29.60;33.10
66608;DHT22;53462;39.616;8.824;2023-05-07T12:33:59;29.00;32.50
66608;DHT22;53462;39.616;8.824;2023-05-07T12:36:25;29.10;33.10
66608;DHT22;53462;39.616;8.824;2023-05-07T12:38:51;29.00;33.50
66608;DHT22;53462;39.616;8.824;2023-05-07T12:41:17;28.70;34.20
66608;DHT22;53462;39.616;8.824;2023-05-07T12:43:44;28.80;33.90
66608;DHT22;53462;39.616;8.824;2023-05-07T12:46:12;28.60;34.80
66608;DHT22;53462;39.616;8.824;2023-05-07T12:48:45;28.50;35.20
66608;DHT22;53462;39.616;8.824;2023-05-07T12:51:11;28.40;34.60
66608;DHT22;53462;39.616;8.824;2023-05-07T12:53:42;28.10;35.00
66608;DHT22;53462;39.616;8.824;2023-05-07T12:56:09;28.20;35.40
66608;DHT22;53462;39.616;8.824;2023-05-07T12:58:35;28.60;35.30
66608;DHT22;53462;39.616;8.824;2023-05-07T13:01:06;28.70;35.00
66608;DHT22;53462;39.616;8.824;2023-05-07T13:03:34;28.50;35.50
66608;DHT22;53462;39.616;8.824;2023-05-07T13:06:05;28.50;34.80
66608;DHT22;53462;39.616;8.824;2023-05-07T13:08:37;28.20;35.70
66608;DHT22;53462;39.616;8.824;2023-05-07T13:11:07;28.30;35.80
66608;DHT22;53462;39.616;8.824;2023-05-07T13:13:35;27.80;36.80
66608;DHT22;53462;39.616;8.824;2023-05-07T13:16:02;27.90;36.50
66608;DHT22;53462;39.616;8.824;2023-05-07T13:18:30;28.00;36.70
66608;DHT22;53462;39.616;8.824;2023-05-07T13:20:56;27.90;37.20
66608;DHT22;53462;39.616;8.824;2023-05-07T13:23:22;27.80;36.80
66608;DHT22;53462;39.616;8.824;2023-05-07T13:25:49;27.70;36.80
66608;DHT22;53462;39.616;8.824;2023-05-07T13:28:16;27.60;37.30
66608;DHT22;53462;39.616;8.824;2023-05-07T13:30:42;27.70;36.70
66608;DHT22;53462;39.616;8.824;2023-05-07T13:33:08;27.90;36.20
66608;DHT22;53462;39.616;8.824;2023-05-07T13:35:35;27.60;36.60
66608;DHT22;53462;39.616;8.824;2023-05-07T13:38:01;27.20;36.50
66608;DHT22;53462;39.616;8.824;2023-05-07T13:40:27;27.30;37.10
66608;DHT22;53462;39.616;8.824;2023-05-07T13:42:53;27.40;36.30
66608;DHT22;53462;39.616;8.824;2023-05-07T13:45:19;27.30;36.70
66608;DHT22;53462;39.616;8.824;2023-05-07T13:47:46;27.00;36.50
66608;DHT22;53462;39.616;8.824;2023-05-07T13:50:12;26.90;37.20
66608;DHT22;53462;39.616;8.824;2023-05-07T13:52:42;26.80;37.50
66608;DHT22;53462;39.616;8.824;2023-05-07T13:55:09;27.20;37.50
66608;DHT22;53462;39.616;8.824;2023-05-07T13:57:38;27.10;36.70
66608;DHT22;53462;39.616;8.824;2023-05-07T14:00:05;27.00;36.50
66608;DHT22;53462;39.616;8.824;2023-05-07T14:02:40;26.60;36.60
66608;DHT22;53462;39.616;8.824;2023-05-07T14:05:07;26.60;36.80
66608;DHT22;53462;39.616;8.824;2023-05-07T14:07:33;26.80;37.00
66608;DHT22;53462;39.616;8.824;2023-05-07T14:09:59;26.80;37.00
66608;DHT22;53462;39.616;8.824;2023-05-07T14:12:25;26.70;37.40
66608;DHT22;53462;39.616;8.824;2023-05-07T14:14:51;27.00;36.30
66608;DHT22;53462;39.616;8.824;2023-05-07T14:17:18;26.80;36.60
66608;DHT22;53462;39.616;8.824;2023-05-07T14:19:44;26.50;36.90
66608;DHT22;53462;39.616;8.824;2023-05-07T14:22:10;26.40;36.20
66608;DHT22;53462;39.616;8.824;2023-05-07T14:24:37;26.60;36.30
66608;DHT22;53462;39.616;8.824;2023-05-07T14:27:05;26.50;36.80
66608;DHT22;53462;39.616;8.824;2023-05-07T14:29:31;26.60;36.10
66608;DHT22;53462;39.616;8.824;2023-05-07T14:31:57;26.70;36.20
66608;DHT22;53462;39.616;8.824;2023-05-07T14:34:23;26.50;36.30
66608;DHT22;53462;39.616;8.824;2023-05-07T14:36:49;26.50;36.30
66608;DHT22;53462;39.616;8.824;2023-05-07T14:39:15;26.60;36.40
66608;DHT22;53462;39.616;8.824;2023-05-07T14:41:41;26.80;36.10
66608;DHT22;53462;39.616;8.824;2023-05-07T14:44:07;26.70;36.00
66608;DHT22;53462;39.616;8.824;2023-05-07T14:46:33;26.70;36.10
66608;DHT22;53462;39.616;8.824;2023-05-07T14:48:59;26.60;36.00
66608;DHT22;53462;39.616;8.824;2023-05-07T14:51:25;26.70;36.30
66608;DHT22;53462;39.616;8.824;2023-05-07T14:53:53;26.60;35.90
66608;DHT22;53462;39.616;8.824;2023-05-07T14:56:19;26.70;36.70
66608;DHT22;53462;39.616;8.824;2023-05-07T14:58:47;26.70;36.70
66608;DHT22;53462;39.616;8.824;2023-05-07T15:01:14;26.60;37.20
66608;DHT22;53462;39.616;8.824;2023-05-07T15:03:40;26.60;36.80
66608;DHT22;53462;39.616;8.824;2023-05-07T15:06:06;26.50;37.40
66608;DHT22;53462;39.616;8.824;2023-05-07T15:08:32;26.60;37.50
66608;DHT22;53462;39.616;8.824;2023-05-07T15:10:58;26.60;36.20
66608;DHT22;53462;39.616;8.824;2023-05-07T15:13:24;26.60;36.20
66608;DHT22;53462;39.616;8.824;2023-05-07T15:15:49;26.70;36.90
66608;DHT22;53462;39.616;8.824;2023-05-07T15:18:16;26.70;36.50
66608;DHT22;53462;39.616;8.824;2023-05-07T15:20:42;26.40;36.90
66608;DHT22;53462;39.616;8.824;2023-05-07T15:23:08;26.30;37.10
66608;DHT22;53462;39.616;8.824;2023-05-07T15:25:42;26.40;36.90
66608;DHT22;53462;39.616;8.824;2023-05-07T15:28:08;26.20;36.50
66608;DHT22;53462;39.616;8.824;2023-05-07T15:30:34;26.10;36.30
66608;DHT22;53462;39.616;8.824;2023-05-07T15:33:01;26.10;36.90
66608;DHT22;53462;39.616;8.824;2023-05-07T15:35:27;26.30;36.60
66608;DHT22;53462;39.616;8.824;2023-05-07T15:37:53;26.20;36.90
66608;DHT22;53462;39.616;8.824;2023-05-07T15:40:19;26.20;36.20
66608;DHT22;53462;39.616;8.824;2023-05-07T15:42:45;26.00;36.50
66608;DHT22;53462;39.616;8.824;2023-05-07T15:45:12;26.20;36.70